Terminal Aerodrome Forecast
Issued by NWS Tuscon, AZ

Home | Current Version | Previous Version | Text Only | Print | Product List | Glossary On
Versions: 1 2 3 4 5 6 7 8 9 10 11 12 13 14 15 16
604
FTUS45 KTWC 231139
TAFDUG
TAF
KDUG 231139Z 2312/2412 15010KT P6SM FEW150
     FM231800 22018G28KT P6SM SCT120 BKN200
     FM240600 21020G30KT P6SM VCSH SCT030 BKN060
     FM241100 26016G24KT P6SM VCSH SCT030 OVC050=

USA.gov is the U.S. government's official web portal to all federal, state and local government web resources and services.